sensor_id;sensor_type;location;lat;lon;timestamp;temperature;humidity
53978;DHT22;39886;47.984;-1.586;2023-01-15T00:00:20;17.50;72.00
53978;DHT22;39886;47.984;-1.586;2023-01-15T00:02:45;17.40;72.00
53978;DHT22;39886;47.984;-1.586;2023-01-15T00:05:11;17.40;72.00
53978;DHT22;39886;47.984;-1.586;2023-01-15T00:07:37;17.50;72.00
53978;DHT22;39886;47.984;-1.586;2023-01-15T00:10:03;17.50;72.00
53978;DHT22;39886;47.984;-1.586;2023-01-15T00:12:29;17.40;72.00
53978;DHT22;39886;47.984;-1.586;2023-01-15T00:14:55;17.40;72.00
53978;DHT22;39886;47.984;-1.586;2023-01-15T00:17:22;17.40;72.00
53978;DHT22;39886;47.984;-1.586;2023-01-15T00:19:48;17.40;72.00
53978;DHT22;39886;47.984;-1.586;2023-01-15T00:22:14;17.40;72.00
53978;DHT22;39886;47.984;-1.586;2023-01-15T00:24:40;17.40;72.00
53978;DHT22;39886;47.984;-1.586;2023-01-15T00:27:24;17.40;72.00
53978;DHT22;39886;47.984;-1.586;2023-01-15T00:30:12;17.40;72.00
53978;DHT22;39886;47.984;-1.586;2023-01-15T00:32:39;17.40;72.00
53978;DHT22;39886;47.984;-1.586;2023-01-15T00:35:05;17.40;72.00
53978;DHT22;39886;47.984;-1.586;2023-01-15T00:37:31;17.40;72.00
53978;DHT22;39886;47.984;-1.586;2023-01-15T00:39:56;17.40;72.00
53978;DHT22;39886;47.984;-1.586;2023-01-15T00:42:22;17.40;72.00
53978;DHT22;39886;47.984;-1.586;2023-01-15T00:44:48;17.40;71.90
53978;DHT22;39886;47.984;-1.586;2023-01-15T00:47:14;17.40;72.00
53978;DHT22;39886;47.984;-1.586;2023-01-15T00:49:40;17.40;72.00
53978;DHT22;39886;47.984;-1.586;2023-01-15T00:52:06;17.40;72.00
53978;DHT22;39886;47.984;-1.586;2023-01-15T00:54:32;17.40;72.00
53978;DHT22;39886;47.984;-1.586;2023-01-15T00:56:58;17.40;72.00
53978;DHT22;39886;47.984;-1.586;2023-01-15T00:59:24;17.40;72.00
53978;DHT22;39886;47.984;-1.586;2023-01-15T01:01:50;17.40;72.00
53978;DHT22;39886;47.984;-1.586;2023-01-15T01:04:16;17.30;71.90
53978;DHT22;39886;47.984;-1.586;2023-01-15T01:06:42;17.40;72.00
53978;DHT22;39886;47.984;-1.586;2023-01-15T01:09:11;17.30;72.00
53978;DHT22;39886;47.984;-1.586;2023-01-15T01:11:37;17.30;71.90
53978;DHT22;39886;47.984;-1.586;2023-01-15T01:14:03;17.40;72.00
53978;DHT22;39886;47.984;-1.586;2023-01-15T01:16:36;17.30;71.90
53978;DHT22;39886;47.984;-1.586;2023-01-15T01:19:13;17.40;72.00
53978;DHT22;39886;47.984;-1.586;2023-01-15T01:21:41;17.30;71.90
53978;DHT22;39886;47.984;-1.586;2023-01-15T01:24:09;17.30;71.90
53978;DHT22;39886;47.984;-1.586;2023-01-15T01:26:35;17.30;71.90
53978;DHT22;39886;47.984;-1.586;2023-01-15T01:29:00;17.30;71.90
53978;DHT22;39886;47.984;-1.586;2023-01-15T01:31:26;17.30;71.90
53978;DHT22;39886;47.984;-1.586;2023-01-15T01:33:54;17.30;71.90
53978;DHT22;39886;47.984;-1.586;2023-01-15T01:36:26;17.30;71.90
53978;DHT22;39886;47.984;-1.586;2023-01-15T01:38:52;17.30;71.90
53978;DHT22;39886;47.984;-1.586;2023-01-15T01:41:18;17.30;71.90
53978;DHT22;39886;47.984;-1.586;2023-01-15T01:43:57;17.30;71.90
53978;DHT22;39886;47.984;-1.586;2023-01-15T01:46:24;17.30;71.90
53978;DHT22;39886;47.984;-1.586;2023-01-15T01:48:54;17.30;71.90
53978;DHT22;39886;47.984;-1.586;2023-01-15T01:51:26;17.20;71.80
53978;DHT22;39886;47.984;-1.586;2023-01-15T01:53:52;17.30;71.90
53978;DHT22;39886;47.984;-1.586;2023-01-15T01:56:18;17.30;71.90
53978;DHT22;39886;47.984;-1.586;2023-01-15T01:58:47;17.30;71.90
53978;DHT22;39886;47.984;-1.586;2023-01-15T02:01:14;17.30;71.90
53978;DHT22;39886;47.984;-1.586;2023-01-15T02:03:41;17.20;71.80
53978;DHT22;39886;47.984;-1.586;2023-01-15T02:06:08;17.30;71.90
53978;DHT22;39886;47.984;-1.586;2023-01-15T02:08:35;17.20;71.80
53978;DHT22;39886;47.984;-1.586;2023-01-15T02:11:05;17.20;71.80
53978;DHT22;39886;47.984;-1.586;2023-01-15T02:16:28;17.20;71.80
53978;DHT22;39886;47.984;-1.586;2023-01-15T02:19:16;17.20;71.80
53978;DHT22;39886;47.984;-1.586;2023-01-15T02:27:45;17.20;71.80
53978;DHT22;39886;47.984;-1.586;2023-01-15T02:32:52;17.20;71.80
53978;DHT22;39886;47.984;-1.586;2023-01-15T02:37:50;17.20;71.80
53978;DHT22;39886;47.984;-1.586;2023-01-15T02:40:20;17.20;71.80
53978;DHT22;39886;47.984;-1.586;2023-01-15T02:42:48;17.20;71.80
53978;DHT22;39886;47.984;-1.586;2023-01-15T02:45:19;17.20;71.80
53978;DHT22;39886;47.984;-1.586;2023-01-15T02:47:51;17.20;71.80
53978;DHT22;39886;47.984;-1.586;2023-01-15T02:50:22;17.20;71.80
53978;DHT22;39886;47.984;-1.586;2023-01-15T02:52:54;17.20;71.80
53978;DHT22;39886;47.984;-1.586;2023-01-15T02:55:27;17.20;71.80
53978;DHT22;39886;47.984;-1.586;2023-01-15T02:57:58;17.20;71.80
53978;DHT22;39886;47.984;-1.586;2023-01-15T03:00:25;17.20;71.80
53978;DHT22;39886;47.984;-1.586;2023-01-15T03:02:58;17.10;72.40
53978;DHT22;39886;47.984;-1.586;2023-01-15T03:05:30;17.20;71.80
53978;DHT22;39886;47.984;-1.586;2023-01-15T03:08:02;17.20;71.80
53978;DHT22;39886;47.984;-1.586;2023-01-15T03:13:14;17.10;71.70
53978;DHT22;39886;47.984;-1.586;2023-01-15T03:18:52;17.10;71.70
53978;DHT22;39886;47.984;-1.586;2023-01-15T03:21:25;17.10;71.70
53978;DHT22;39886;47.984;-1.586;2023-01-15T03:23:53;17.10;71.70
53978;DHT22;39886;47.984;-1.586;2023-01-15T03:26:20;17.10;71.70
53978;DHT22;39886;47.984;-1.586;2023-01-15T03:28:47;17.10;71.70
53978;DHT22;39886;47.984;-1.586;2023-01-15T03:31:14;17.10;71.70
53978;DHT22;39886;47.984;-1.586;2023-01-15T03:33:41;17.10;72.30
53978;DHT22;39886;47.984;-1.586;2023-01-15T03:36:07;17.10;71.70
53978;DHT22;39886;47.984;-1.586;2023-01-15T03:38:36;17.10;71.70
53978;DHT22;39886;47.984;-1.586;2023-01-15T03:44:36;17.10;71.70
53978;DHT22;39886;47.984;-1.586;2023-01-15T03:52:35;17.10;71.70
53978;DHT22;39886;47.984;-1.586;2023-01-15T03:55:43;17.10;71.70
53978;DHT22;39886;47.984;-1.586;2023-01-15T03:58:26;17.10;71.70
53978;DHT22;39886;47.984;-1.586;2023-01-15T04:00:54;17.00;71.60
53978;DHT22;39886;47.984;-1.586;2023-01-15T04:03:22;17.10;71.60
53978;DHT22;39886;47.984;-1.586;2023-01-15T04:05:50;17.10;71.60
53978;DHT22;39886;47.984;-1.586;2023-01-15T04:08:18;17.00;71.60
53978;DHT22;39886;47.984;-1.586;2023-01-15T04:10:54;17.10;71.60
53978;DHT22;39886;47.984;-1.586;2023-01-15T04:13:21;17.00;71.60
53978;DHT22;39886;47.984;-1.586;2023-01-15T04:15:47;17.00;71.60
53978;DHT22;39886;47.984;-1.586;2023-01-15T04:18:13;17.00;71.50
53978;DHT22;39886;47.984;-1.586;2023-01-15T04:20:38;17.00;71.50
53978;DHT22;39886;47.984;-1.586;2023-01-15T04:23:04;17.00;71.50
53978;DHT22;39886;47.984;-1.586;2023-01-15T04:25:30;17.00;71.60
53978;DHT22;39886;47.984;-1.586;2023-01-15T04:27:56;17.00;71.50
53978;DHT22;39886;47.984;-1.586;2023-01-15T04:30:22;17.00;71.50
53978;DHT22;39886;47.984;-1.586;2023-01-15T04:32:49;17.00;71.60
53978;DHT22;39886;47.984;-1.586;2023-01-15T04:35:15;17.00;71.50
53978;DHT22;39886;47.984;-1.586;2023-01-15T04:37:41;17.00;71.50
53978;DHT22;39886;47.984;-1.586;2023-01-15T04:40:08;17.00;71.50
53978;DHT22;39886;47.984;-1.586;2023-01-15T04:42:34;17.00;71.50
53978;DHT22;39886;47.984;-1.586;2023-01-15T04:45:18;17.00;71.50
53978;DHT22;39886;47.984;-1.586;2023-01-15T04:47:44;16.90;71.50
53978;DHT22;39886;47.984;-1.586;2023-01-15T04:50:10;17.00;71.50
53978;DHT22;39886;47.984;-1.586;2023-01-15T04:52:37;17.00;71.50
53978;DHT22;39886;47.984;-1.586;2023-01-15T04:55:04;16.90;71.40
53978;DHT22;39886;47.984;-1.586;2023-01-15T04:57:30;17.00;71.50
53978;DHT22;39886;47.984;-1.586;2023-01-15T04:59:55;17.00;71.50
53978;DHT22;39886;47.984;-1.586;2023-01-15T05:02:22;16.90;71.40
53978;DHT22;39886;47.984;-1.586;2023-01-15T05:04:48;16.90;71.40
53978;DHT22;39886;47.984;-1.586;2023-01-15T05:07:15;17.00;71.50
53978;DHT22;39886;47.984;-1.586;2023-01-15T05:09:40;16.90;71.40
53978;DHT22;39886;47.984;-1.586;2023-01-15T05:12:07;16.90;72.00
53978;DHT22;39886;47.984;-1.586;2023-01-15T05:14:33;16.90;71.40
53978;DHT22;39886;47.984;-1.586;2023-01-15T05:16:58;16.90;71.40
53978;DHT22;39886;47.984;-1.586;2023-01-15T05:19:24;16.90;71.40
53978;DHT22;39886;47.984;-1.586;2023-01-15T05:21:50;16.90;71.40
53978;DHT22;39886;47.984;-1.586;2023-01-15T05:24:16;16.90;72.00
53978;DHT22;39886;47.984;-1.586;2023-01-15T05:26:43;16.90;71.30
53978;DHT22;39886;47.984;-1.586;2023-01-15T05:29:12;17.00;71.20
53978;DHT22;39886;47.984;-1.586;2023-01-15T05:31:38;17.10;70.80
53978;DHT22;39886;47.984;-1.586;2023-01-15T05:34:04;17.20;70.30
53978;DHT22;39886;47.984;-1.586;2023-01-15T05:36:30;17.30;70.00
53978;DHT22;39886;47.984;-1.586;2023-01-15T05:38:57;17.40;69.70
53978;DHT22;39886;47.984;-1.586;2023-01-15T05:41:26;17.50;69.40
53978;DHT22;39886;47.984;-1.586;2023-01-15T05:44:11;17.60;69.20
53978;DHT22;39886;47.984;-1.586;2023-01-15T05:46:39;17.70;69.00
53978;DHT22;39886;47.984;-1.586;2023-01-15T05:49:08;17.80;68.80
53978;DHT22;39886;47.984;-1.586;2023-01-15T05:51:35;17.80;68.50
53978;DHT22;39886;47.984;-1.586;2023-01-15T05:54:01;17.90;68.40
53978;DHT22;39886;47.984;-1.586;2023-01-15T05:56:27;18.00;68.20
53978;DHT22;39886;47.984;-1.586;2023-01-15T05:58:53;18.00;68.00
53978;DHT22;39886;47.984;-1.586;2023-01-15T06:01:20;18.10;67.80
53978;DHT22;39886;47.984;-1.586;2023-01-15T06:03:45;18.10;67.60
53978;DHT22;39886;47.984;-1.586;2023-01-15T06:06:15;18.20;67.50
53978;DHT22;39886;47.984;-1.586;2023-01-15T06:08:41;18.20;67.30
53978;DHT22;39886;47.984;-1.586;2023-01-15T06:11:07;18.30;67.10
53978;DHT22;39886;47.984;-1.586;2023-01-15T06:13:33;18.30;67.00
53978;DHT22;39886;47.984;-1.586;2023-01-15T06:15:59;18.40;66.90
53978;DHT22;39886;47.984;-1.586;2023-01-15T06:18:25;18.40;66.70
53978;DHT22;39886;47.984;-1.586;2023-01-15T06:20:51;18.40;66.50
53978;DHT22;39886;47.984;-1.586;2023-01-15T06:23:17;18.40;66.40
53978;DHT22;39886;47.984;-1.586;2023-01-15T06:25:43;18.50;66.30
53978;DHT22;39886;47.984;-1.586;2023-01-15T06:28:10;18.50;66.20
53978;DHT22;39886;47.984;-1.586;2023-01-15T06:30:37;18.60;66.10
53978;DHT22;39886;47.984;-1.586;2023-01-15T06:33:04;18.60;66.00
53978;DHT22;39886;47.984;-1.586;2023-01-15T06:35:29;18.60;65.90
53978;DHT22;39886;47.984;-1.586;2023-01-15T06:37:55;18.70;65.90
53978;DHT22;39886;47.984;-1.586;2023-01-15T06:40:21;18.60;65.90
53978;DHT22;39886;47.984;-1.586;2023-01-15T06:42:48;18.60;66.10
53978;DHT22;39886;47.984;-1.586;2023-01-15T06:45:37;18.50;67.00
53978;DHT22;39886;47.984;-1.586;2023-01-15T06:48:22;18.40;66.70
53978;DHT22;39886;47.984;-1.586;2023-01-15T06:50:49;18.30;67.60
53978;DHT22;39886;47.984;-1.586;2023-01-15T06:53:14;18.20;67.20
53978;DHT22;39886;47.984;-1.586;2023-01-15T06:55:40;18.20;67.40
53978;DHT22;39886;47.984;-1.586;2023-01-15T06:58:06;18.10;67.50
53978;DHT22;39886;47.984;-1.586;2023-01-15T07:00:32;18.10;67.60
53978;DHT22;39886;47.984;-1.586;2023-01-15T07:03:02;18.00;67.70
53978;DHT22;39886;47.984;-1.586;2023-01-15T07:05:28;18.00;67.80
53978;DHT22;39886;47.984;-1.586;2023-01-15T07:07:54;18.00;67.80
53978;DHT22;39886;47.984;-1.586;2023-01-15T07:10:20;17.90;67.90
53978;DHT22;39886;47.984;-1.586;2023-01-15T07:12:45;17.90;68.00
53978;DHT22;39886;47.984;-1.586;2023-01-15T07:15:11;17.90;68.00
53978;DHT22;39886;47.984;-1.586;2023-01-15T07:17:37;17.80;68.00
53978;DHT22;39886;47.984;-1.586;2023-01-15T07:20:03;17.80;68.00
53978;DHT22;39886;47.984;-1.586;2023-01-15T07:22:30;17.80;68.10
53978;DHT22;39886;47.984;-1.586;2023-01-15T07:24:56;17.80;68.10
53978;DHT22;39886;47.984;-1.586;2023-01-15T07:27:22;17.70;68.10
53978;DHT22;39886;47.984;-1.586;2023-01-15T07:29:47;17.70;68.20
53978;DHT22;39886;47.984;-1.586;2023-01-15T07:32:14;17.70;68.30
53978;DHT22;39886;47.984;-1.586;2023-01-15T07:34:40;17.70;68.30
53978;DHT22;39886;47.984;-1.586;2023-01-15T07:37:05;17.70;68.30
53978;DHT22;39886;47.984;-1.586;2023-01-15T07:39:32;17.60;68.30
53978;DHT22;39886;47.984;-1.586;2023-01-15T07:41:57;17.60;68.30
53978;DHT22;39886;47.984;-1.586;2023-01-15T07:44:42;17.60;68.30
53978;DHT22;39886;47.984;-1.586;2023-01-15T07:47:26;17.60;68.40
53978;DHT22;39886;47.984;-1.586;2023-01-15T07:50:22;17.60;68.40
53978;DHT22;39886;47.984;-1.586;2023-01-15T07:52:48;17.50;68.40
53978;DHT22;39886;47.984;-1.586;2023-01-15T07:55:14;17.50;68.40
53978;DHT22;39886;47.984;-1.586;2023-01-15T07:57:41;17.50;68.50
53978;DHT22;39886;47.984;-1.586;2023-01-15T08:00:10;17.50;68.50
53978;DHT22;39886;47.984;-1.586;2023-01-15T08:02:36;17.50;68.50
53978;DHT22;39886;47.984;-1.586;2023-01-15T08:05:02;17.50;68.50
53978;DHT22;39886;47.984;-1.586;2023-01-15T08:07:28;17.50;68.50
53978;DHT22;39886;47.984;-1.586;2023-01-15T08:09:54;17.40;68.50
53978;DHT22;39886;47.984;-1.586;2023-01-15T08:12:20;17.40;68.50
53978;DHT22;39886;47.984;-1.586;2023-01-15T08:15:04;17.40;68.50
53978;DHT22;39886;47.984;-1.586;2023-01-15T08:17:43;17.40;68.60
53978;DHT22;39886;47.984;-1.586;2023-01-15T08:20:14;17.40;68.60
53978;DHT22;39886;47.984;-1.586;2023-01-15T08:22:40;17.30;68.50
53978;DHT22;39886;47.984;-1.586;2023-01-15T08:25:08;17.40;68.60
53978;DHT22;39886;47.984;-1.586;2023-01-15T08:27:35;17.30;68.60
53978;DHT22;39886;47.984;-1.586;2023-01-15T08:30:03;17.30;68.60
53978;DHT22;39886;47.984;-1.586;2023-01-15T08:32:29;17.30;68.60
53978;DHT22;39886;47.984;-1.586;2023-01-15T08:34:54;17.30;68.60
53978;DHT22;39886;47.984;-1.586;2023-01-15T08:37:20;17.30;68.60
53978;DHT22;39886;47.984;-1.586;2023-01-15T08:39:46;17.20;68.60
53978;DHT22;39886;47.984;-1.586;2023-01-15T08:42:12;17.20;68.60
53978;DHT22;39886;47.984;-1.586;2023-01-15T08:44:37;17.20;68.60
53978;DHT22;39886;47.984;-1.586;2023-01-15T08:47:03;17.20;68.60
53978;DHT22;39886;47.984;-1.586;2023-01-15T08:49:29;17.20;68.70
53978;DHT22;39886;47.984;-1.586;2023-01-15T08:51:54;17.20;68.70
53978;DHT22;39886;47.984;-1.586;2023-01-15T08:54:21;17.20;68.70
53978;DHT22;39886;47.984;-1.586;2023-01-15T08:56:49;17.20;68.70
53978;DHT22;39886;47.984;-1.586;2023-01-15T08:59:15;17.20;68.70
53978;DHT22;39886;47.984;-1.586;2023-01-15T09:01:41;17.20;68.70
53978;DHT22;39886;47.984;-1.586;2023-01-15T09:04:12;17.20;68.80
53978;DHT22;39886;47.984;-1.586;2023-01-15T09:06:38;17.20;68.70
53978;DHT22;39886;47.984;-1.586;2023-01-15T09:09:03;17.20;68.80
53978;DHT22;39886;47.984;-1.586;2023-01-15T09:11:29;17.20;68.80
53978;DHT22;39886;47.984;-1.586;2023-01-15T09:13:55;17.20;68.70
53978;DHT22;39886;47.984;-1.586;2023-01-15T09:16:21;17.10;68.60
53978;DHT22;39886;47.984;-1.586;2023-01-15T09:18:47;17.20;68.70
53978;DHT22;39886;47.984;-1.586;2023-01-15T09:21:12;17.10;68.70
53978;DHT22;39886;47.984;-1.586;2023-01-15T09:23:38;17.10;68.70
53978;DHT22;39886;47.984;-1.586;2023-01-15T09:26:06;17.20;68.70
53978;DHT22;39886;47.984;-1.586;2023-01-15T09:28:33;17.10;68.60
53978;DHT22;39886;47.984;-1.586;2023-01-15T09:30:59;17.20;68.70
53978;DHT22;39886;47.984;-1.586;2023-01-15T09:33:25;17.20;68.70
53978;DHT22;39886;47.984;-1.586;2023-01-15T09:35:51;17.10;68.60
53978;DHT22;39886;47.984;-1.586;2023-01-15T09:38:19;17.10;68.60
53978;DHT22;39886;47.984;-1.586;2023-01-15T09:40:49;17.10;68.60
53978;DHT22;39886;47.984;-1.586;2023-01-15T09:46:08;17.10;68.60
53978;DHT22;39886;47.984;-1.586;2023-01-15T09:56:37;17.10;68.70
53978;DHT22;39886;47.984;-1.586;2023-01-15T09:59:31;17.10;68.60
53978;DHT22;39886;47.984;-1.586;2023-01-15T10:01:59;17.10;68.60
53978;DHT22;39886;47.984;-1.586;2023-01-15T10:04:38;17.10;68.60
53978;DHT22;39886;47.984;-1.586;2023-01-15T10:07:27;17.10;68.60
53978;DHT22;39886;47.984;-1.586;2023-01-15T10:10:09;17.10;68.70
53978;DHT22;39886;47.984;-1.586;2023-01-15T10:12:37;17.10;68.60
53978;DHT22;39886;47.984;-1.586;2023-01-15T10:15:34;17.10;68.60
53978;DHT22;39886;47.984;-1.586;2023-01-15T10:18:01;17.10;68.70
53978;DHT22;39886;47.984;-1.586;2023-01-15T10:20:47;17.10;68.70
53978;DHT22;39886;47.984;-1.586;2023-01-15T10:25:51;17.10;68.60
53978;DHT22;39886;47.984;-1.586;2023-01-15T10:28:27;17.10;68.60
53978;DHT22;39886;47.984;-1.586;2023-01-15T10:30:54;17.10;68.70
53978;DHT22;39886;47.984;-1.586;2023-01-15T10:36:11;17.10;68.60
53978;DHT22;39886;47.984;-1.586;2023-01-15T10:44:43;17.10;68.60
53978;DHT22;39886;47.984;-1.586;2023-01-15T10:47:14;17.10;68.70
53978;DHT22;39886;47.984;-1.586;2023-01-15T10:49:41;17.10;68.60
53978;DHT22;39886;47.984;-1.586;2023-01-15T10:52:30;17.10;68.60
53978;DHT22;39886;47.984;-1.586;2023-01-15T11:00:40;17.10;68.60
53978;DHT22;39886;47.984;-1.586;2023-01-15T11:03:15;17.10;68.60
53978;DHT22;39886;47.984;-1.586;2023-01-15T11:05:44;17.10;68.60
53978;DHT22;39886;47.984;-1.586;2023-01-15T11:08:30;17.20;68.60
53978;DHT22;39886;47.984;-1.586;2023-01-15T11:10:57;17.10;68.60
53978;DHT22;39886;47.984;-1.586;2023-01-15T11:13:29;17.10;68.60
53978;DHT22;39886;47.984;-1.586;2023-01-15T11:16:21;17.10;68.60
53978;DHT22;39886;47.984;-1.586;2023-01-15T11:19:37;17.20;68.60
53978;DHT22;39886;47.984;-1.586;2023-01-15T11:22:17;17.20;69.30
53978;DHT22;39886;47.984;-1.586;2023-01-15T11:27:16;17.10;68.50
53978;DHT22;39886;47.984;-1.586;2023-01-15T11:29:44;17.20;68.50
53978;DHT22;39886;47.984;-1.586;2023-01-15T11:32:30;17.20;68.50
53978;DHT22;39886;47.984;-1.586;2023-01-15T11:34:58;17.20;68.50
53978;DHT22;39886;47.984;-1.586;2023-01-15T11:37:24;17.20;68.50
53978;DHT22;39886;47.984;-1.586;2023-01-15T11:39:52;17.20;68.40
53978;DHT22;39886;47.984;-1.586;2023-01-15T11:42:18;17.20;68.40
53978;DHT22;39886;47.984;-1.586;2023-01-15T11:45:12;17.20;68.40
53978;DHT22;39886;47.984;-1.586;2023-01-15T11:47:56;17.20;68.30
53978;DHT22;39886;47.984;-1.586;2023-01-15T11:50:59;17.20;69.00
53978;DHT22;39886;47.984;-1.586;2023-01-15T11:53:28;17.20;68.30
53978;DHT22;39886;47.984;-1.586;2023-01-15T11:56:02;17.20;68.30
53978;DHT22;39886;47.984;-1.586;2023-01-15T11:59:00;17.20;68.20
53978;DHT22;39886;47.984;-1.586;2023-01-15T12:01:26;17.20;68.20
53978;DHT22;39886;47.984;-1.586;2023-01-15T12:03:54;17.20;68.10
53978;DHT22;39886;47.984;-1.586;2023-01-15T12:06:20;17.30;68.10
53978;DHT22;39886;47.984;-1.586;2023-01-15T12:08:52;17.30;68.10
53978;DHT22;39886;47.984;-1.586;2023-01-15T12:19:36;17.30;67.90
53978;DHT22;39886;47.984;-1.586;2023-01-15T12:25:01;17.30;67.80
53978;DHT22;39886;47.984;-1.586;2023-01-15T12:28:31;17.30;67.80
53978;DHT22;39886;47.984;-1.586;2023-01-15T12:30:41;17.30;67.80
53978;DHT22;39886;47.984;-1.586;2023-01-15T12:36:13;17.30;67.70
53978;DHT22;39886;47.984;-1.586;2023-01-15T12:41:28;17.40;67.80
53978;DHT22;39886;47.984;-1.586;2023-01-15T12:44:20;17.30;67.60
53978;DHT22;39886;47.984;-1.586;2023-01-15T12:47:09;17.30;67.60
53978;DHT22;39886;47.984;-1.586;2023-01-15T12:49:52;17.40;67.70
53978;DHT22;39886;47.984;-1.586;2023-01-15T12:52:26;17.40;67.60
53978;DHT22;39886;47.984;-1.586;2023-01-15T12:57:33;17.40;67.60
53978;DHT22;39886;47.984;-1.586;2023-01-15T13:05:46;17.40;67.40
53978;DHT22;39886;47.984;-1.586;2023-01-15T13:11:23;17.40;67.30
53978;DHT22;39886;47.984;-1.586;2023-01-15T13:13:49;17.40;67.30
53978;DHT22;39886;47.984;-1.586;2023-01-15T13:21:42;17.50;66.90
53978;DHT22;39886;47.984;-1.586;2023-01-15T13:32:22;17.60;66.60
53978;DHT22;39886;47.984;-1.586;2023-01-15T13:34:54;17.50;66.50
53978;DHT22;39886;47.984;-1.586;2023-01-15T13:37:25;17.60;66.50
53978;DHT22;39886;47.984;-1.586;2023-01-15T13:39:55;17.60;66.50
53978;DHT22;39886;47.984;-1.586;2023-01-15T13:42:24;17.60;66.40
53978;DHT22;39886;47.984;-1.586;2023-01-15T13:45:31;17.60;66.40
53978;DHT22;39886;47.984;-1.586;2023-01-15T13:50:41;17.60;66.30
53978;DHT22;39886;47.984;-1.586;2023-01-15T13:56:28;17.60;66.30
53978;DHT22;39886;47.984;-1.586;2023-01-15T13:58:59;17.60;66.30
53978;DHT22;39886;47.984;-1.586;2023-01-15T14:01:36;17.60;66.30
53978;DHT22;39886;47.984;-1.586;2023-01-15T14:06:48;17.60;66.30
53978;DHT22;39886;47.984;-1.586;2023-01-15T14:09:27;17.60;66.20
53978;DHT22;39886;47.984;-1.586;2023-01-15T14:23:00;17.70;66.10
53978;DHT22;39886;47.984;-1.586;2023-01-15T14:30:53;17.70;66.10
53978;DHT22;39886;47.984;-1.586;2023-01-15T14:33:40;17.70;66.10
53978;DHT22;39886;47.984;-1.586;2023-01-15T14:36:22;17.70;66.00
53978;DHT22;39886;47.984;-1.586;2023-01-15T14:38:54;17.70;66.10
53978;DHT22;39886;47.984;-1.586;2023-01-15T14:41:31;17.60;66.00
53978;DHT22;39886;47.984;-1.586;2023-01-15T14:43:59;17.60;66.00
53978;DHT22;39886;47.984;-1.586;2023-01-15T14:46:30;17.60;66.00
53978;DHT22;39886;47.984;-1.586;2023-01-15T14:48:59;17.60;66.00
53978;DHT22;39886;47.984;-1.586;2023-01-15T14:51:33;17.60;66.00
53978;DHT22;39886;47.984;-1.586;2023-01-15T14:54:07;17.60;66.00
53978;DHT22;39886;47.984;-1.586;2023-01-15T14:56:55;17.60;66.00
53978;DHT22;39886;47.984;-1.586;2023-01-15T14:59:33;17.60;65.90
53978;DHT22;39886;47.984;-1.586;2023-01-15T15:02:12;17.60;66.00
53978;DHT22;39886;47.984;-1.586;2023-01-15T15:04:44;17.60;66.00
53978;DHT22;39886;47.984;-1.586;2023-01-15T15:07:18;17.60;66.00
53978;DHT22;39886;47.984;-1.586;2023-01-15T15:12:38;17.60;66.00
53978;DHT22;39886;47.984;-1.586;2023-01-15T15:15:20;17.60;66.00
53978;DHT22;39886;47.984;-1.586;2023-01-15T15:21:09;17.60;66.00
53978;DHT22;39886;47.984;-1.586;2023-01-15T15:23:43;17.60;66.00
53978;DHT22;39886;47.984;-1.586;2023-01-15T15:29:02;17.50;66.00
53978;DHT22;39886;47.984;-1.586;2023-01-15T15:31:31;17.50;65.90
53978;DHT22;39886;47.984;-1.586;2023-01-15T15:33:58;17.50;66.00
53978;DHT22;39886;47.984;-1.586;2023-01-15T15:36:27;17.50;66.00
53978;DHT22;39886;47.984;-1.586;2023-01-15T15:39:00;17.50;66.00
53978;DHT22;39886;47.984;-1.586;2023-01-15T15:41:29;17.50;66.00
53978;DHT22;39886;47.984;-1.586;2023-01-15T15:44:52;17.50;66.00
53978;DHT22;39886;47.984;-1.586;2023-01-15T15:47:39;17.50;66.00
53978;DHT22;39886;47.984;-1.586;2023-01-15T15:50:29;17.50;66.00
53978;DHT22;39886;47.984;-1.586;2023-01-15T15:52:56;17.50;66.00
53978;DHT22;39886;47.984;-1.586;2023-01-15T15:55:24;17.50;66.00
53978;DHT22;39886;47.984;-1.586;2023-01-15T15:57:55;17.50;66.10
53978;DHT22;39886;47.984;-1.586;2023-01-15T16:00:30;17.50;66.10
53978;DHT22;39886;47.984;-1.586;2023-01-15T16:03:03;17.50;66.10
53978;DHT22;39886;47.984;-1.586;2023-01-15T16:05:29;17.40;66.00
53978;DHT22;39886;47.984;-1.586;2023-01-15T16:08:07;17.40;66.10
53978;DHT22;39886;47.984;-1.586;2023-01-15T16:10:41;17.40;66.10
53978;DHT22;39886;47.984;-1.586;2023-01-15T16:13:12;17.40;66.10
53978;DHT22;39886;47.984;-1.586;2023-01-15T16:15:41;17.40;66.10
53978;DHT22;39886;47.984;-1.586;2023-01-15T16:18:25;17.40;66.10
53978;DHT22;39886;47.984;-1.586;2023-01-15T16:20:52;17.40;66.10
53978;DHT22;39886;47.984;-1.586;2023-01-15T16:23:22;17.40;66.10
53978;DHT22;39886;47.984;-1.586;2023-01-15T16:26:15;17.40;66.10
53978;DHT22;39886;47.984;-1.586;2023-01-15T16:28:52;17.40;66.10
53978;DHT22;39886;47.984;-1.586;2023-01-15T16:31:19;17.40;66.20
53978;DHT22;39886;47.984;-1.586;2023-01-15T16:33:56;17.40;66.20
53978;DHT22;39886;47.984;-1.586;2023-01-15T16:36:23;17.40;66.20
53978;DHT22;39886;47.984;-1.586;2023-01-15T16:38:50;17.30;66.20
53978;DHT22;39886;47.984;-1.586;2023-01-15T16:41:37;17.30;66.20
53978;DHT22;39886;47.984;-1.586;2023-01-15T16:44:06;17.30;66.20
53978;DHT22;39886;47.984;-1.586;2023-01-15T16:46:43;17.30;66.20
53978;DHT22;39886;47.984;-1.586;2023-01-15T16:51:49;17.30;66.20
53978;DHT22;39886;47.984;-1.586;2023-01-15T17:01:50;17.30;66.30
53978;DHT22;39886;47.984;-1.586;2023-01-15T17:04:35;17.20;66.30
53978;DHT22;39886;47.984;-1.586;2023-01-15T17:07:02;17.30;66.30
53978;DHT22;39886;47.984;-1.586;2023-01-15T17:09:32;17.20;66.30
53978;DHT22;39886;47.984;-1.586;2023-01-15T17:12:03;17.20;66.30
53978;DHT22;39886;47.984;-1.586;2023-01-15T17:14:30;17.20;66.30
53978;DHT22;39886;47.984;-1.586;2023-01-15T17:19:40;17.20;66.30
53978;DHT22;39886;47.984;-1.586;2023-01-15T17:22:13;17.20;66.30
53978;DHT22;39886;47.984;-1.586;2023-01-15T17:24:53;17.20;66.30
53978;DHT22;39886;47.984;-1.586;2023-01-15T17:27:19;17.20;66.30
53978;DHT22;39886;47.984;-1.586;2023-01-15T17:29:45;17.10;66.30
53978;DHT22;39886;47.984;-1.586;2023-01-15T17:32:13;17.10;66.30
53978;DHT22;39886;47.984;-1.586;2023-01-15T17:34:40;17.20;66.30
53978;DHT22;39886;47.984;-1.586;2023-01-15T17:37:06;17.20;66.30
53978;DHT22;39886;47.984;-1.586;2023-01-15T17:39:31;17.20;66.30
53978;DHT22;39886;47.984;-1.586;2023-01-15T17:41:58;17.10;66.30
53978;DHT22;39886;47.984;-1.586;2023-01-15T17:44:25;17.10;66.30
53978;DHT22;39886;47.984;-1.586;2023-01-15T17:46:50;17.10;66.30
53978;DHT22;39886;47.984;-1.586;2023-01-15T17:49:16;17.10;66.30
53978;DHT22;39886;47.984;-1.586;2023-01-15T17:51:42;17.10;66.30
53978;DHT22;39886;47.984;-1.586;2023-01-15T17:54:08;17.20;66.20
53978;DHT22;39886;47.984;-1.586;2023-01-15T17:56:33;17.30;65.80
53978;DHT22;39886;47.984;-1.586;2023-01-15T17:59:18;17.40;65.50
53978;DHT22;39886;47.984;-1.586;2023-01-15T18:02:04;17.50;65.10
53978;DHT22;39886;47.984;-1.586;2023-01-15T18:04:53;17.70;64.80